createdAt,value
2022-07-28T00:01:18.590Z,24.84
2022-07-28T00:03:49.139Z,24.84
2022-07-28T00:06:17.516Z,24.83
2022-07-28T00:08:45.592Z,24.75
2022-07-28T00:11:13.895Z,24.50
2022-07-28T00:13:43.338Z,24.59
2022-07-28T00:16:11.492Z,24.71
2022-07-28T00:18:39.634Z,24.65
2022-07-28T00:21:07.956Z,24.60
2022-07-28T00:23:38.836Z,24.49
2022-07-28T00:26:09.269Z,24.49
2022-07-28T00:28:37.419Z,24.58
2022-07-28T00:31:11.284Z,24.32
2022-07-28T00:33:40.827Z,24.48
2022-07-28T00:36:11.518Z,24.50
2022-07-28T00:38:40.895Z,24.43
2022-07-28T00:41:12.303Z,24.46
2022-07-28T00:43:40.851Z,24.35
2022-07-28T00:46:10.917Z,24.21
2022-07-28T00:48:40.071Z,24.23
2022-07-28T00:51:10.194Z,24.33
2022-07-28T00:53:38.434Z,24.20
2022-07-28T00:56:07.539Z,24.03
2022-07-28T00:58:36.015Z,24.16
2022-07-28T01:01:05.629Z,24.24
2022-07-28T01:03:36.091Z,24.28
2022-07-28T01:06:12.625Z,24.28
2022-07-28T01:08:57.915Z,24.31
2022-07-28T01:11:42.763Z,24.20
2022-07-28T01:14:18.221Z,24.29
2022-07-28T01:16:51.349Z,24.39
2022-07-28T01:19:34.862Z,24.44
2022-07-28T01:22:04.600Z,24.37
2022-07-28T01:24:41.254Z,24.41
2022-07-28T01:27:12.040Z,24.29
2022-07-28T01:30:08.597Z,24.13
2022-07-28T01:32:41.647Z,24.19
2022-07-28T01:35:15.519Z,24.26
2022-07-28T01:37:47.959Z,24.24
2022-07-28T01:40:19.619Z,24.25
2022-07-28T01:42:50.387Z,24.31
2022-07-28T01:45:20.570Z,24.29
2022-07-28T01:47:51.866Z,24.35
2022-07-28T01:50:22.930Z,24.27
2022-07-28T01:52:52.376Z,24.25
2022-07-28T01:55:22.383Z,24.20
2022-07-28T01:57:52.526Z,24.25
2022-07-28T02:00:20.719Z,24.15
2022-07-28T02:02:52.176Z,24.18
2022-07-28T02:05:23.134Z,24.20
2022-07-28T02:07:52.864Z,24.20
2022-07-28T02:10:22.639Z,24.18
2022-07-28T02:12:52.908Z,24.20
2022-07-28T02:15:22.686Z,24.21
2022-07-28T02:17:54.136Z,24.14
2022-07-28T02:20:23.736Z,24.12
2022-07-28T02:22:53.151Z,24.13
2022-07-28T02:25:21.690Z,24.10
2022-07-28T02:27:53.538Z,24.03
2022-07-28T02:30:27.794Z,24.01
2022-07-28T02:33:01.054Z,24.00
2022-07-28T02:35:38.194Z,23.99
2022-07-28T02:38:10.566Z,23.83
2022-07-28T02:40:41.637Z,23.81
2022-07-28T02:43:15.710Z,23.84
2022-07-28T02:45:48.433Z,23.83
2022-07-28T02:48:23.015Z,23.81
2022-07-28T02:50:52.786Z,23.80
2022-07-28T02:53:23.733Z,23.78
2022-07-28T02:55:53.986Z,23.66
2022-07-28T02:58:23.909Z,23.69
2022-07-28T03:00:54.248Z,23.65
2022-07-28T03:03:24.395Z,23.69
2022-07-28T03:05:53.044Z,23.67
2022-07-28T03:08:21.439Z,23.60
2022-07-28T03:10:49.438Z,23.58
2022-07-28T03:13:17.466Z,23.51
2022-07-28T03:15:45.475Z,23.48
2022-07-28T03:18:13.550Z,23.27
2022-07-28T03:20:42.900Z,23.31
2022-07-28T03:23:10.931Z,23.42
2022-07-28T03:25:44.192Z,23.40
2022-07-28T03:28:17.903Z,23.48
2022-07-28T03:30:51.840Z,23.48
2022-07-28T03:33:20.131Z,23.45
2022-07-28T03:35:52.867Z,23.38
2022-07-28T03:38:23.986Z,23.39
2022-07-28T03:40:55.314Z,23.46
2022-07-28T03:43:26.107Z,23.51
2022-07-28T03:45:54.411Z,23.53
2022-07-28T03:48:24.558Z,23.56
2022-07-28T03:50:53.922Z,23.60
2022-07-28T03:53:23.959Z,23.58
2022-07-28T03:55:52.232Z,23.53
2022-07-28T03:58:20.460Z,23.57
2022-07-28T04:00:48.583Z,23.48
2022-07-28T04:03:36.559Z,23.59
2022-07-28T04:06:06.740Z,23.71
2022-07-28T04:08:35.157Z,23.78
2022-07-28T04:11:03.214Z,23.91
2022-07-28T04:13:32.343Z,23.60
2022-07-28T04:16:00.780Z,23.91
2022-07-28T04:18:28.781Z,23.87
2022-07-28T04:20:56.992Z,23.97
2022-07-28T04:23:26.698Z,24.22
2022-07-28T04:25:55.477Z,24.17
2022-07-28T04:28:24.296Z,23.92
2022-07-28T04:30:52.626Z,23.95
2022-07-28T04:33:20.848Z,23.92
2022-07-28T04:35:48.859Z,24.08
2022-07-28T04:38:18.174Z,24.11
2022-07-28T04:40:48.323Z,24.00
2022-07-28T04:43:16.677Z,24.06
2022-07-28T04:45:53.248Z,24.12
2022-07-28T04:48:23.306Z,24.27
2022-07-28T04:50:52.995Z,24.53
2022-07-28T04:53:21.600Z,24.72
2022-07-28T04:55:53.675Z,25.01
2022-07-28T04:58:23.329Z,25.28
2022-07-28T05:00:51.955Z,25.43
2022-07-28T05:03:20.517Z,25.49
2022-07-28T05:05:53.810Z,25.62
2022-07-28T05:08:26.185Z,25.75
2022-07-28T05:10:57.618Z,25.48
2022-07-28T05:13:30.266Z,25.60
2022-07-28T05:16:01.862Z,25.59
2022-07-28T05:18:29.984Z,25.81
2022-07-28T05:20:58.046Z,26.17
2022-07-28T05:23:26.103Z,26.39
2022-07-28T05:25:54.185Z,26.24
2022-07-28T05:28:23.562Z,26.44
2022-07-28T05:30:51.617Z,26.48
2022-07-28T05:33:19.760Z,26.72
2022-07-28T05:35:54.134Z,26.86
2022-07-28T05:38:22.266Z,27.00
2022-07-28T05:40:50.471Z,27.07
2022-07-28T05:43:18.651Z,26.98
2022-07-28T05:45:48.744Z,27.32
2022-07-28T05:48:19.343Z,27.47
2022-07-28T05:50:47.540Z,27.65
2022-07-28T05:53:15.867Z,27.60
2022-07-28T05:56:00.613Z,27.20
2022-07-28T05:58:30.903Z,27.31
2022-07-28T06:01:02.255Z,27.28
2022-07-28T06:03:32.293Z,27.27
2022-07-28T06:06:16.105Z,27.55
2022-07-28T06:08:46.700Z,27.59
2022-07-28T06:11:22.288Z,27.70
2022-07-28T06:13:51.650Z,28.04
2022-07-28T06:16:22.764Z,28.12
2022-07-28T06:18:51.501Z,28.29
2022-07-28T06:21:19.604Z,28.60
2022-07-28T06:23:47.612Z,28.76
2022-07-28T06:26:15.639Z,28.92
2022-07-28T06:28:43.668Z,28.60
2022-07-28T06:31:11.732Z,28.52
2022-07-28T06:33:41.205Z,28.54
2022-07-28T06:36:09.312Z,28.88
2022-07-28T06:38:37.362Z,29.33
2022-07-28T06:41:05.394Z,29.54
2022-07-28T06:43:38.268Z,29.32
2022-07-28T06:46:06.747Z,29.30
2022-07-28T06:48:37.688Z,29.23
2022-07-28T06:51:07.410Z,29.36
2022-07-28T06:53:35.782Z,28.99
2022-07-28T06:56:05.698Z,29.57
2022-07-28T06:58:34.267Z,29.06
2022-07-28T07:01:03.350Z,29.42
2022-07-28T07:03:31.387Z,29.33
2022-07-28T07:05:59.396Z,29.44
2022-07-28T07:08:28.951Z,29.70
2022-07-28T07:10:57.053Z,30.01
2022-07-28T07:13:25.295Z,29.84
2022-07-28T07:15:53.537Z,30.32
2022-07-28T07:18:21.673Z,30.52
2022-07-28T07:20:49.876Z,30.83
2022-07-28T07:23:17.877Z,31.10
2022-07-28T07:25:47.303Z,30.92
2022-07-28T07:28:15.406Z,31.19
2022-07-28T07:30:44.778Z,30.55
2022-07-28T07:33:12.815Z,31.31
2022-07-28T07:35:40.860Z,31.38
2022-07-28T07:38:08.896Z,31.75
2022-07-28T07:40:37.040Z,31.91
2022-07-28T07:43:06.673Z,31.96
2022-07-28T07:45:35.082Z,32.07
2022-07-28T07:48:03.497Z,32.04
2022-07-28T07:50:31.721Z,32.38
2022-07-28T07:53:01.085Z,32.33
2022-07-28T07:55:37.539Z,32.64
2022-07-28T07:58:07.710Z,32.69
2022-07-28T08:00:35.961Z,32.90
2022-07-28T08:03:04.080Z,33.11
2022-07-28T08:05:39.470Z,33.22
2022-07-28T08:08:08.041Z,33.40
2022-07-28T08:10:36.689Z,33.43
2022-07-28T08:13:06.632Z,33.19
2022-07-28T08:15:36.470Z,32.89
2022-07-28T08:18:05.407Z,33.62
2022-07-28T08:20:33.986Z,33.64
2022-07-28T08:23:02.054Z,34.01
2022-07-28T08:25:30.448Z,33.70
2022-07-28T08:27:58.555Z,33.51
2022-07-28T08:30:32.003Z,33.94
2022-07-28T08:33:03.136Z,34.11
2022-07-28T08:35:34.257Z,34.17
2022-07-28T08:38:04.328Z,34.42
2022-07-28T08:40:33.611Z,33.91
2022-07-28T08:43:10.646Z,33.85
2022-07-28T08:45:40.875Z,34.07
2022-07-28T08:48:12.795Z,34.16
2022-07-28T08:50:41.398Z,34.32
2022-07-28T08:53:09.754Z,34.38
2022-07-28T08:55:38.887Z,34.47
2022-07-28T08:58:07.510Z,34.30
2022-07-28T09:00:35.795Z,34.44
2022-07-28T09:03:05.480Z,34.51
2022-07-28T09:05:35.778Z,34.69
2022-07-28T09:08:04.645Z,34.70
2022-07-28T09:10:32.799Z,34.94
2022-07-28T09:13:00.863Z,35.14
2022-07-28T09:15:29.020Z,34.97
2022-07-28T09:17:57.059Z,34.70
2022-07-28T09:20:25.856Z,35.00
2022-07-28T09:23:00.504Z,34.97
2022-07-28T09:25:29.915Z,35.28
2022-07-28T09:28:06.260Z,35.11
2022-07-28T09:30:36.565Z,35.25
2022-07-28T09:33:41.046Z,35.10
2022-07-28T09:36:15.634Z,35.55
2022-07-28T09:38:45.125Z,35.50
2022-07-28T09:41:13.568Z,35.43
2022-07-28T09:43:43.501Z,35.16
2022-07-28T09:46:13.409Z,35.04
2022-07-28T09:48:54.076Z,34.95
2022-07-28T09:51:24.954Z,35.24
2022-07-28T09:53:54.932Z,35.40
2022-07-28T09:56:26.257Z,35.63
2022-07-28T09:59:02.929Z,35.72
2022-07-28T10:01:36.780Z,35.23
2022-07-28T10:04:05.771Z,35.72
2022-07-28T10:06:37.889Z,35.76
2022-07-28T10:09:08.199Z,35.87
2022-07-28T10:11:41.317Z,35.84
2022-07-28T10:14:17.055Z,35.87
2022-07-28T10:16:52.708Z,35.77
2022-07-28T10:19:22.045Z,35.85
2022-07-28T10:21:53.867Z,35.65
2022-07-28T10:24:27.820Z,35.64
2022-07-28T10:26:58.409Z,35.57
2022-07-28T10:29:31.996Z,35.77
2022-07-28T10:32:05.645Z,35.98
2022-07-28T10:34:38.939Z,35.83
2022-07-28T10:37:10.731Z,35.31
2022-07-28T10:39:43.528Z,35.48
2022-07-28T10:42:13.304Z,35.73
2022-07-28T10:44:43.545Z,35.64
2022-07-28T10:47:18.630Z,35.54
2022-07-28T10:49:48.925Z,35.36
2022-07-28T10:55:21.771Z,35.69
2022-07-28T10:58:02.053Z,35.73
2022-07-28T11:00:56.021Z,36.02
2022-07-28T11:03:42.899Z,35.72
2022-07-28T11:06:31.472Z,35.79
2022-07-28T11:09:01.942Z,35.77
2022-07-28T11:11:50.021Z,35.94
2022-07-28T11:14:37.099Z,36.00
2022-07-28T11:17:19.938Z,36.19
2022-07-28T11:22:46.781Z,36.00
2022-07-28T11:25:18.554Z,35.82
2022-07-28T11:28:09.282Z,35.78
2022-07-28T11:30:58.427Z,35.83
2022-07-28T11:33:47.254Z,35.86
2022-07-28T11:36:16.847Z,35.29
2022-07-28T11:39:22.736Z,35.66
2022-07-28T11:41:50.988Z,35.51
2022-07-28T11:44:27.581Z,35.74
2022-07-28T11:46:56.419Z,35.46
2022-07-28T11:49:26.339Z,35.40
2022-07-28T11:52:13.259Z,35.71
2022-07-28T11:54:44.696Z,35.93
2022-07-28T11:57:13.861Z,36.02
2022-07-28T11:59:43.882Z,36.02
2022-07-28T12:02:25.056Z,35.90
2022-07-28T12:05:15.019Z,35.78
2022-07-28T12:07:47.198Z,36.13
2022-07-28T12:13:30.201Z,35.74
2022-07-28T12:15:58.682Z,35.86
2022-07-28T12:18:26.885Z,35.93
2022-07-28T12:20:56.007Z,35.79
2022-07-28T12:23:49.422Z,35.67
2022-07-28T12:26:34.455Z,35.46
2022-07-28T12:29:10.950Z,35.46
2022-07-28T12:31:42.390Z,35.50
2022-07-28T12:34:11.933Z,35.62
2022-07-28T12:36:40.627Z,35.39
2022-07-28T12:39:13.089Z,35.63
2022-07-28T12:41:41.713Z,35.68
2022-07-28T12:44:12.582Z,35.28
2022-07-28T12:46:48.845Z,34.96
2022-07-28T12:49:23.496Z,35.36
2022-07-28T12:51:51.756Z,35.27
2022-07-28T12:54:35.696Z,35.34
2022-07-28T12:57:03.973Z,35.32
2022-07-28T12:59:38.419Z,35.63
2022-07-28T13:02:08.956Z,35.62
2022-07-28T13:04:42.569Z,35.37
2022-07-28T13:07:12.982Z,35.58
2022-07-28T13:09:51.370Z,35.19
2022-07-28T13:12:28.624Z,35.21
2022-07-28T13:14:58.368Z,35.35
2022-07-28T13:17:31.827Z,35.18
2022-07-28T13:20:06.820Z,34.99
2022-07-28T13:22:35.135Z,35.22
2022-07-28T13:25:04.793Z,34.92
2022-07-28T13:27:33.679Z,34.88
2022-07-28T13:30:02.161Z,34.74
2022-07-28T13:32:30.443Z,34.67
2022-07-28T13:34:58.908Z,35.02
2022-07-28T13:37:27.615Z,34.71
2022-07-28T13:39:55.683Z,34.57
2022-07-28T13:42:25.239Z,34.15
2022-07-28T13:44:53.324Z,34.26
2022-07-28T13:47:21.411Z,33.92
2022-07-28T13:49:49.557Z,33.69
2022-07-28T13:52:26.376Z,33.38
2022-07-28T13:55:04.277Z,33.49
2022-07-28T13:57:36.626Z,33.08
2022-07-28T14:00:07.623Z,33.01
2022-07-28T14:02:36.767Z,33.08
2022-07-28T14:05:06.394Z,32.97
2022-07-28T14:07:34.550Z,32.72
2022-07-28T14:10:02.797Z,32.15
2022-07-28T14:12:31.035Z,31.43
2022-07-28T14:15:00.585Z,31.41
2022-07-28T14:17:45.700Z,30.69
2022-07-28T14:20:15.311Z,30.23
2022-07-28T14:22:43.930Z,29.77
2022-07-28T14:25:19.459Z,29.57
2022-07-28T14:27:49.398Z,29.14
2022-07-28T14:30:19.917Z,29.12
2022-07-28T14:32:48.060Z,29.03
2022-07-28T14:35:16.714Z,29.00
2022-07-28T14:40:33.351Z,29.10
2022-07-28T14:43:07.827Z,28.92
2022-07-28T14:46:01.476Z,29.02
2022-07-28T14:48:25.960Z,28.79
2022-07-28T14:50:55.591Z,28.90
2022-07-28T14:53:24.254Z,28.91
2022-07-28T14:55:56.363Z,28.98
2022-07-28T14:58:24.557Z,29.02
2022-07-28T15:00:54.553Z,28.96
2022-07-28T15:03:22.844Z,28.71
2022-07-28T15:05:51.008Z,28.58
2022-07-28T15:08:19.032Z,28.65
2022-07-28T15:10:49.155Z,28.80
2022-07-28T15:13:17.288Z,28.73
2022-07-28T15:15:45.580Z,28.79
2022-07-28T15:18:15.347Z,28.75
2022-07-28T15:20:43.706Z,28.85
2022-07-28T15:23:11.779Z,28.81
2022-07-28T15:25:40.037Z,28.68
2022-07-28T15:28:08.098Z,28.50
2022-07-28T15:30:36.162Z,28.32
2022-07-28T15:33:20.495Z,28.36
2022-07-28T15:35:56.496Z,28.54
2022-07-28T15:38:28.530Z,28.40
2022-07-28T15:40:58.811Z,28.48
2022-07-28T15:43:27.139Z,28.13
2022-07-28T15:45:56.772Z,28.04
2022-07-28T15:48:26.318Z,28.48
2022-07-28T15:50:54.588Z,28.43
2022-07-28T15:53:22.657Z,28.74
2022-07-28T15:55:51.630Z,28.79
2022-07-28T15:58:20.103Z,28.81
2022-07-28T16:00:48.145Z,28.80
2022-07-28T16:03:16.289Z,28.69
2022-07-28T16:05:49.630Z,28.60
2022-07-28T16:08:18.361Z,28.74
2022-07-28T16:10:51.622Z,28.80
2022-07-28T16:13:31.390Z,28.76
2022-07-28T16:16:05.282Z,28.64
2022-07-28T16:18:33.402Z,28.42
2022-07-28T16:21:02.992Z,28.21
2022-07-28T16:23:31.032Z,27.98
2022-07-28T16:25:59.388Z,27.85
2022-07-28T16:28:27.759Z,27.64
2022-07-28T16:30:56.723Z,27.68
2022-07-28T16:33:24.812Z,27.68
2022-07-28T16:35:53.369Z,27.64
2022-07-28T16:38:22.913Z,27.40
2022-07-28T16:40:51.122Z,27.09
2022-07-28T16:43:19.126Z,26.69
2022-07-28T16:45:47.154Z,26.23
2022-07-28T16:48:15.308Z,26.42
2022-07-28T16:50:46.230Z,26.58
2022-07-28T16:53:14.912Z,26.53
2022-07-28T16:55:45.526Z,26.51
2022-07-28T16:58:13.535Z,26.59
2022-07-28T17:00:41.722Z,26.68
2022-07-28T17:03:11.074Z,26.66
2022-07-28T17:05:39.316Z,26.60
2022-07-28T17:08:09.106Z,26.52
2022-07-28T17:10:37.288Z,26.45
2022-07-28T17:13:07.262Z,26.17
2022-07-28T17:15:38.355Z,26.45
2022-07-28T17:18:07.001Z,26.42
2022-07-28T17:20:35.277Z,26.35
2022-07-28T17:23:04.138Z,26.23
2022-07-28T17:28:21.647Z,26.15
2022-07-28T17:30:49.980Z,26.02
2022-07-28T17:33:18.045Z,26.05
2022-07-28T17:35:46.099Z,26.00
2022-07-28T17:38:18.299Z,26.03
2022-07-28T17:40:46.342Z,26.01
2022-07-28T17:43:16.123Z,25.97
2022-07-28T17:45:45.704Z,25.94
2022-07-28T17:48:13.768Z,25.93
2022-07-28T17:50:42.546Z,25.92
2022-07-28T17:53:10.679Z,25.91
2022-07-28T17:55:57.945Z,25.86
2022-07-28T17:58:32.183Z,25.82
2022-07-28T18:01:11.168Z,25.83
2022-07-28T18:03:59.008Z,25.74
2022-07-28T18:06:29.860Z,25.58
2022-07-28T18:08:58.849Z,25.46
2022-07-28T18:11:33.639Z,25.51
2022-07-28T18:14:04.919Z,25.47
2022-07-28T18:16:35.260Z,25.51
2022-07-28T18:19:03.386Z,25.51
2022-07-28T18:21:31.430Z,25.50
2022-07-28T18:23:59.435Z,25.34
2022-07-28T18:26:27.445Z,25.37
2022-07-28T18:28:55.448Z,25.31
2022-07-28T18:31:23.510Z,25.39
2022-07-28T18:33:52.994Z,25.42
2022-07-28T18:36:21.095Z,25.39
2022-07-28T18:38:49.105Z,25.39
2022-07-28T18:41:18.110Z,25.41
2022-07-28T18:43:46.123Z,25.37
2022-07-28T18:46:14.262Z,25.34
2022-07-28T18:48:42.327Z,25.34
2022-07-28T18:51:11.778Z,25.32
2022-07-28T18:53:40.267Z,25.26
2022-07-28T18:56:08.286Z,25.29
2022-07-28T18:58:36.323Z,25.27
2022-07-28T19:01:04.359Z,25.26
2022-07-28T19:03:38.179Z,25.11
2022-07-28T19:06:06.287Z,25.20
2022-07-28T19:08:35.661Z,25.05
2022-07-28T19:11:03.663Z,25.03
2022-07-28T19:13:31.675Z,25.10
2022-07-28T19:15:59.754Z,25.05
2022-07-28T19:18:27.807Z,25.16
2022-07-28T19:20:55.833Z,25.09
2022-07-28T19:23:24.497Z,25.14
2022-07-28T19:25:53.983Z,25.12
2022-07-28T19:28:22.152Z,25.06
2022-07-28T19:30:50.403Z,24.98
2022-07-28T19:33:19.561Z,24.96
2022-07-28T19:35:47.620Z,24.86
2022-07-28T19:38:15.666Z,24.86
2022-07-28T19:40:44.201Z,24.85
2022-07-28T19:43:13.665Z,24.82
2022-07-28T19:45:41.739Z,24.81
2022-07-28T19:48:09.955Z,24.78
2022-07-28T19:50:37.954Z,24.78
2022-07-28T19:53:06.017Z,24.76
2022-07-28T19:55:50.563Z,24.74
2022-07-28T19:58:20.904Z,24.69
2022-07-28T20:00:49.801Z,24.70
2022-07-28T20:04:01.159Z,24.53
2022-07-28T20:06:07.247Z,24.57
2022-07-28T20:08:35.479Z,24.50
2022-07-28T20:11:03.560Z,24.47
2022-07-28T20:13:33.047Z,24.40
2022-07-28T20:16:01.061Z,24.30
2022-07-28T20:18:29.092Z,24.36
2022-07-28T20:20:57.522Z,24.38
2022-07-28T20:23:25.657Z,24.36
2022-07-28T20:25:53.733Z,24.31
2022-07-28T20:28:21.805Z,24.34
2022-07-28T20:30:51.378Z,24.31
2022-07-28T20:33:19.608Z,24.21
2022-07-28T20:35:47.690Z,24.09
2022-07-28T20:38:23.496Z,24.20
2022-07-28T20:40:51.703Z,24.18
2022-07-28T20:43:19.709Z,24.18
2022-07-28T20:45:47.779Z,24.13
2022-07-28T20:48:17.255Z,24.11
2022-07-28T20:50:45.824Z,24.07
2022-07-28T20:53:14.135Z,23.96
2022-07-28T20:55:42.136Z,23.94
2022-07-28T20:58:10.175Z,23.98
2022-07-28T21:00:40.399Z,23.95
2022-07-28T21:03:08.430Z,23.83
2022-07-28T21:05:37.812Z,23.83
2022-07-28T21:08:09.543Z,23.86
2022-07-28T21:10:44.485Z,23.84
2022-07-28T21:13:12.577Z,23.87
2022-07-28T21:15:40.619Z,23.82
2022-07-28T21:18:09.595Z,23.81
2022-07-28T21:20:39.035Z,23.77
2022-07-28T21:23:07.049Z,23.70
2022-07-28T21:25:35.743Z,23.66
2022-07-28T21:28:21.286Z,23.54
2022-07-28T21:30:49.244Z,23.48
2022-07-28T21:33:22.630Z,23.51
2022-07-28T21:35:52.579Z,23.48
2022-07-28T21:38:20.651Z,23.51
2022-07-28T21:40:48.898Z,23.47
2022-07-28T21:43:16.931Z,23.35
2022-07-28T21:45:45.676Z,23.27
2022-07-28T21:48:13.847Z,23.29
2022-07-28T21:50:41.847Z,23.39
2022-07-28T21:53:15.414Z,23.36
2022-07-28T21:55:45.526Z,23.39
2022-07-28T21:58:13.933Z,23.31
2022-07-28T22:00:42.113Z,23.29
2022-07-28T22:03:10.194Z,23.27
2022-07-28T22:05:38.521Z,23.24
2022-07-28T22:08:06.641Z,23.24
2022-07-28T22:10:36.024Z,23.15
2022-07-28T22:13:04.146Z,23.19
2022-07-28T22:15:32.152Z,23.18
2022-07-28T22:18:00.190Z,23.08
2022-07-28T22:20:28.212Z,23.15
2022-07-28T22:22:56.255Z,23.22
2022-07-28T22:25:24.419Z,23.17
2022-07-28T22:27:54.062Z,23.12
2022-07-28T22:30:22.315Z,23.09
2022-07-28T22:32:50.373Z,23.12
2022-07-28T22:35:18.553Z,22.97
2022-07-28T22:37:46.990Z,23.02
2022-07-28T22:40:16.186Z,23.02
2022-07-28T22:42:45.056Z,23.00
2022-07-28T22:45:14.714Z,22.97
2022-07-28T22:48:02.967Z,23.04
2022-07-28T22:50:31.008Z,23.00
2022-07-28T22:52:59.027Z,22.99
2022-07-28T22:58:12.764Z,22.96
2022-07-28T23:00:42.280Z,22.97
2022-07-28T23:03:13.205Z,23.02
2022-07-28T23:05:41.379Z,23.00
2022-07-28T23:08:09.452Z,22.96
2022-07-28T23:10:38.787Z,22.96
2022-07-28T23:13:06.851Z,22.94
2022-07-28T23:15:40.902Z,22.91
2022-07-28T23:18:11.590Z,22.87
2022-07-28T23:20:40.224Z,22.83
2022-07-28T23:23:08.574Z,22.84
2022-07-28T23:25:39.603Z,22.82
2022-07-28T23:28:08.484Z,22.78
2022-07-28T23:30:36.607Z,22.79
2022-07-28T23:33:04.857Z,22.70
2022-07-28T23:35:35.709Z,22.80
2022-07-28T23:38:04.116Z,22.70
2022-07-28T23:40:32.324Z,22.71
2022-07-28T23:43:00.433Z,22.65
2022-07-28T23:45:28.980Z,22.63
2022-07-28T23:47:59.033Z,22.58
2022-07-28T23:50:27.834Z,22.58
2022-07-28T23:53:00.294Z,22.53
2022-07-28T23:55:28.495Z,22.47
2022-07-28T23:57:56.534Z,22.42
